sensor_id;sensor_type;location;lat;lon;timestamp;temperature;humidity
51793;DHT22;37850;53.178;6.376;2022-12-07T00:01:10;3.70;99.90
51793;DHT22;37850;53.178;6.376;2022-12-07T00:03:37;3.60;99.90
51793;DHT22;37850;53.178;6.376;2022-12-07T00:06:04;3.60;99.90
51793;DHT22;37850;53.178;6.376;2022-12-07T00:08:31;3.60;99.90
51793;DHT22;37850;53.178;6.376;2022-12-07T00:11:09;3.60;99.90
51793;DHT22;37850;53.178;6.376;2022-12-07T00:13:35;3.50;99.90
51793;DHT22;37850;53.178;6.376;2022-12-07T00:16:13;3.60;99.90
51793;DHT22;37850;53.178;6.376;2022-12-07T00:18:39;3.50;99.90
51793;DHT22;37850;53.178;6.376;2022-12-07T00:21:25;3.50;99.90
51793;DHT22;37850;53.178;6.376;2022-12-07T00:23:52;3.50;99.90
51793;DHT22;37850;53.178;6.376;2022-12-07T00:26:23;3.60;99.90
51793;DHT22;37850;53.178;6.376;2022-12-07T00:28:55;3.60;99.90
51793;DHT22;37850;53.178;6.376;2022-12-07T00:31:24;3.70;99.90
51793;DHT22;37850;53.178;6.376;2022-12-07T00:33:51;3.80;99.90
51793;DHT22;37850;53.178;6.376;2022-12-07T00:36:19;3.80;99.90
51793;DHT22;37850;53.178;6.376;2022-12-07T00:38:45;3.80;99.90
51793;DHT22;37850;53.178;6.376;2022-12-07T00:41:16;3.80;99.90
51793;DHT22;37850;53.178;6.376;2022-12-07T00:43:42;3.80;99.90
51793;DHT22;37850;53.178;6.376;2022-12-07T00:46:09;3.80;99.90
51793;DHT22;37850;53.178;6.376;2022-12-07T00:48:35;3.80;99.90
51793;DHT22;37850;53.178;6.376;2022-12-07T00:51:02;3.80;99.90
51793;DHT22;37850;53.178;6.376;2022-12-07T00:53:28;3.80;99.90
51793;DHT22;37850;53.178;6.376;2022-12-07T00:55:54;3.80;99.90
51793;DHT22;37850;53.178;6.376;2022-12-07T00:58:22;3.80;99.90
51793;DHT22;37850;53.178;6.376;2022-12-07T01:00:48;3.80;99.90
51793;DHT22;37850;53.178;6.376;2022-12-07T01:03:15;4.00;99.90
51793;DHT22;37850;53.178;6.376;2022-12-07T01:05:52;3.90;99.90
51793;DHT22;37850;53.178;6.376;2022-12-07T01:08:19;3.90;99.90
51793;DHT22;37850;53.178;6.376;2022-12-07T01:10:45;3.80;99.90
51793;DHT22;37850;53.178;6.376;2022-12-07T01:13:11;3.80;99.90
51793;DHT22;37850;53.178;6.376;2022-12-07T01:15:43;3.80;99.90
51793;DHT22;37850;53.178;6.376;2022-12-07T01:18:10;3.80;99.90
51793;DHT22;37850;53.178;6.376;2022-12-07T01:20:36;3.80;99.90
51793;DHT22;37850;53.178;6.376;2022-12-07T01:23:03;3.80;99.90
51793;DHT22;37850;53.178;6.376;2022-12-07T01:25:31;3.80;99.90
51793;DHT22;37850;53.178;6.376;2022-12-07T01:27:57;3.90;99.90
51793;DHT22;37850;53.178;6.376;2022-12-07T01:30:23;3.80;99.90
51793;DHT22;37850;53.178;6.376;2022-12-07T01:32:49;3.90;99.90
51793;DHT22;37850;53.178;6.376;2022-12-07T01:35:14;4.00;99.90
51793;DHT22;37850;53.178;6.376;2022-12-07T01:37:40;3.90;99.90
51793;DHT22;37850;53.178;6.376;2022-12-07T01:40:07;3.90;99.90
51793;DHT22;37850;53.178;6.376;2022-12-07T01:42:34;3.90;99.90
51793;DHT22;37850;53.178;6.376;2022-12-07T01:47:55;3.90;99.90
51793;DHT22;37850;53.178;6.376;2022-12-07T01:50:25;3.90;99.90
51793;DHT22;37850;53.178;6.376;2022-12-07T01:52:53;4.10;99.90
51793;DHT22;37850;53.178;6.376;2022-12-07T01:55:21;3.80;99.90
51793;DHT22;37850;53.178;6.376;2022-12-07T01:57:49;3.80;99.90
51793;DHT22;37850;53.178;6.376;2022-12-07T02:00:16;3.80;99.90
51793;DHT22;37850;53.178;6.376;2022-12-07T02:02:51;3.80;99.90
51793;DHT22;37850;53.178;6.376;2022-12-07T02:05:19;3.80;99.90
51793;DHT22;37850;53.178;6.376;2022-12-07T02:07:46;3.80;99.90
51793;DHT22;37850;53.178;6.376;2022-12-07T02:10:24;3.80;99.90
51793;DHT22;37850;53.178;6.376;2022-12-07T02:12:54;3.80;99.90
51793;DHT22;37850;53.178;6.376;2022-12-07T02:15:23;3.90;99.90
51793;DHT22;37850;53.178;6.376;2022-12-07T02:18:05;3.90;99.90
51793;DHT22;37850;53.178;6.376;2022-12-07T02:20:54;3.90;99.90
51793;DHT22;37850;53.178;6.376;2022-12-07T02:24:25;3.90;99.90
51793;DHT22;37850;53.178;6.376;2022-12-07T02:34:26;4.00;99.90
51793;DHT22;37850;53.178;6.376;2022-12-07T02:36:58;3.90;99.90
51793;DHT22;37850;53.178;6.376;2022-12-07T02:39:42;4.00;99.90
51793;DHT22;37850;53.178;6.376;2022-12-07T02:42:28;4.00;99.90
51793;DHT22;37850;53.178;6.376;2022-12-07T02:44:56;4.00;99.90
51793;DHT22;37850;53.178;6.376;2022-12-07T02:47:23;4.00;99.90
51793;DHT22;37850;53.178;6.376;2022-12-07T02:49:50;4.00;99.90
51793;DHT22;37850;53.178;6.376;2022-12-07T02:52:16;4.10;99.90
51793;DHT22;37850;53.178;6.376;2022-12-07T02:54:42;4.00;99.90
51793;DHT22;37850;53.178;6.376;2022-12-07T03:02:09;3.90;99.90
51793;DHT22;37850;53.178;6.376;2022-12-07T03:10:42;3.90;99.90
51793;DHT22;37850;53.178;6.376;2022-12-07T03:13:39;3.90;99.90
51793;DHT22;37850;53.178;6.376;2022-12-07T03:16:29;3.90;99.90
51793;DHT22;37850;53.178;6.376;2022-12-07T03:19:02;3.90;99.90
51793;DHT22;37850;53.178;6.376;2022-12-07T03:21:47;3.80;99.90
51793;DHT22;37850;53.178;6.376;2022-12-07T03:24:22;3.80;99.90
51793;DHT22;37850;53.178;6.376;2022-12-07T03:27:02;4.10;99.90
51793;DHT22;37850;53.178;6.376;2022-12-07T03:29:35;3.80;99.90
51793;DHT22;37850;53.178;6.376;2022-12-07T03:37:45;3.80;99.90
51793;DHT22;37850;53.178;6.376;2022-12-07T03:40:19;3.80;99.90
51793;DHT22;37850;53.178;6.376;2022-12-07T03:42:48;3.80;99.90
51793;DHT22;37850;53.178;6.376;2022-12-07T03:45:15;3.70;99.90
51793;DHT22;37850;53.178;6.376;2022-12-07T03:48:07;3.80;99.90
51793;DHT22;37850;53.178;6.376;2022-12-07T03:54:02;3.70;99.90
51793;DHT22;37850;53.178;6.376;2022-12-07T03:56:31;3.80;99.90
51793;DHT22;37850;53.178;6.376;2022-12-07T03:58:58;4.30;99.90
51793;DHT22;37850;53.178;6.376;2022-12-07T04:01:24;3.70;99.90
51793;DHT22;37850;53.178;6.376;2022-12-07T04:03:50;3.70;99.90
51793;DHT22;37850;53.178;6.376;2022-12-07T04:06:16;3.60;99.90
51793;DHT22;37850;53.178;6.376;2022-12-07T04:08:41;3.60;99.90
51793;DHT22;37850;53.178;6.376;2022-12-07T04:11:07;3.60;99.90
51793;DHT22;37850;53.178;6.376;2022-12-07T04:13:33;3.60;99.90
51793;DHT22;37850;53.178;6.376;2022-12-07T04:16:18;3.60;99.90
51793;DHT22;37850;53.178;6.376;2022-12-07T04:18:44;4.10;99.90
51793;DHT22;37850;53.178;6.376;2022-12-07T04:21:10;3.60;99.90
51793;DHT22;37850;53.178;6.376;2022-12-07T04:23:36;3.60;99.90
51793;DHT22;37850;53.178;6.376;2022-12-07T04:26:01;3.60;99.90
51793;DHT22;37850;53.178;6.376;2022-12-07T04:28:27;3.60;99.90
51793;DHT22;37850;53.178;6.376;2022-12-07T04:30:53;3.60;99.90
51793;DHT22;37850;53.178;6.376;2022-12-07T04:33:18;3.60;99.90
51793;DHT22;37850;53.178;6.376;2022-12-07T04:35:44;3.60;99.90
51793;DHT22;37850;53.178;6.376;2022-12-07T04:38:10;3.60;99.90
51793;DHT22;37850;53.178;6.376;2022-12-07T04:40:36;3.70;99.90
51793;DHT22;37850;53.178;6.376;2022-12-07T04:43:01;3.60;99.90
51793;DHT22;37850;53.178;6.376;2022-12-07T04:45:27;3.60;99.90
51793;DHT22;37850;53.178;6.376;2022-12-07T04:47:53;3.60;99.90
51793;DHT22;37850;53.178;6.376;2022-12-07T04:50:19;3.70;99.90
51793;DHT22;37850;53.178;6.376;2022-12-07T04:52:44;3.60;99.90
51793;DHT22;37850;53.178;6.376;2022-12-07T04:55:10;3.60;99.90
51793;DHT22;37850;53.178;6.376;2022-12-07T04:57:36;3.60;99.90
51793;DHT22;37850;53.178;6.376;2022-12-07T05:00:02;3.60;99.90
51793;DHT22;37850;53.178;6.376;2022-12-07T05:02:28;3.60;99.90
51793;DHT22;37850;53.178;6.376;2022-12-07T05:04:54;3.50;99.90
51793;DHT22;37850;53.178;6.376;2022-12-07T05:07:20;3.50;99.90
51793;DHT22;37850;53.178;6.376;2022-12-07T05:09:46;3.50;99.90
51793;DHT22;37850;53.178;6.376;2022-12-07T05:12:11;3.50;99.90
51793;DHT22;37850;53.178;6.376;2022-12-07T05:14:37;3.60;99.90
51793;DHT22;37850;53.178;6.376;2022-12-07T05:17:03;3.40;99.90
51793;DHT22;37850;53.178;6.376;2022-12-07T05:19:29;3.60;99.90
51793;DHT22;37850;53.178;6.376;2022-12-07T05:21:55;3.70;99.90
51793;DHT22;37850;53.178;6.376;2022-12-07T05:24:21;3.30;99.90
51793;DHT22;37850;53.178;6.376;2022-12-07T05:26:47;3.20;99.90
51793;DHT22;37850;53.178;6.376;2022-12-07T05:29:14;3.20;99.90
51793;DHT22;37850;53.178;6.376;2022-12-07T05:31:41;3.10;99.90
51793;DHT22;37850;53.178;6.376;2022-12-07T05:34:06;3.10;99.90
51793;DHT22;37850;53.178;6.376;2022-12-07T05:36:32;3.10;99.90
51793;DHT22;37850;53.178;6.376;2022-12-07T05:39:01;3.10;99.90
51793;DHT22;37850;53.178;6.376;2022-12-07T05:41:27;3.10;99.90
51793;DHT22;37850;53.178;6.376;2022-12-07T05:44:12;3.60;99.90
51793;DHT22;37850;53.178;6.376;2022-12-07T05:46:37;3.10;99.90
51793;DHT22;37850;53.178;6.376;2022-12-07T05:49:03;3.10;99.90
51793;DHT22;37850;53.178;6.376;2022-12-07T05:51:29;3.00;99.90
51793;DHT22;37850;53.178;6.376;2022-12-07T05:53:55;3.10;99.90
51793;DHT22;37850;53.178;6.376;2022-12-07T05:56:21;3.10;99.90
51793;DHT22;37850;53.178;6.376;2022-12-07T05:58:46;3.10;99.90
51793;DHT22;37850;53.178;6.376;2022-12-07T06:01:31;3.10;99.90
51793;DHT22;37850;53.178;6.376;2022-12-07T06:03:56;3.20;99.90
51793;DHT22;37850;53.178;6.376;2022-12-07T06:06:22;3.60;99.90
51793;DHT22;37850;53.178;6.376;2022-12-07T06:08:47;3.10;99.90
51793;DHT22;37850;53.178;6.376;2022-12-07T06:11:13;3.50;99.90
51793;DHT22;37850;53.178;6.376;2022-12-07T06:13:57;3.60;99.90
51793;DHT22;37850;53.178;6.376;2022-12-07T06:16:26;3.40;99.90
51793;DHT22;37850;53.178;6.376;2022-12-07T06:18:51;3.00;99.90
51793;DHT22;37850;53.178;6.376;2022-12-07T06:21:17;3.30;99.90
51793;DHT22;37850;53.178;6.376;2022-12-07T06:23:43;3.00;99.90
51793;DHT22;37850;53.178;6.376;2022-12-07T06:26:09;3.40;99.90
51793;DHT22;37850;53.178;6.376;2022-12-07T06:28:34;3.10;99.90
51793;DHT22;37850;53.178;6.376;2022-12-07T06:31:01;3.20;99.90
51793;DHT22;37850;53.178;6.376;2022-12-07T06:33:28;3.10;99.90
51793;DHT22;37850;53.178;6.376;2022-12-07T06:35:55;3.10;99.90
51793;DHT22;37850;53.178;6.376;2022-12-07T06:38:21;3.10;99.90
51793;DHT22;37850;53.178;6.376;2022-12-07T06:40:47;3.10;99.90
51793;DHT22;37850;53.178;6.376;2022-12-07T06:43:13;3.10;99.90
51793;DHT22;37850;53.178;6.376;2022-12-07T06:45:40;3.10;99.90
51793;DHT22;37850;53.178;6.376;2022-12-07T06:48:06;3.10;99.90
51793;DHT22;37850;53.178;6.376;2022-12-07T06:50:32;3.10;99.90
51793;DHT22;37850;53.178;6.376;2022-12-07T06:52:58;3.10;99.90
51793;DHT22;37850;53.178;6.376;2022-12-07T06:55:26;3.10;99.90
51793;DHT22;37850;53.178;6.376;2022-12-07T06:57:52;3.00;99.90
51793;DHT22;37850;53.178;6.376;2022-12-07T07:00:18;3.00;99.90
51793;DHT22;37850;53.178;6.376;2022-12-07T07:02:44;3.00;99.90
51793;DHT22;37850;53.178;6.376;2022-12-07T07:05:09;3.00;99.90
51793;DHT22;37850;53.178;6.376;2022-12-07T07:07:35;3.00;99.90
51793;DHT22;37850;53.178;6.376;2022-12-07T07:10:01;3.00;99.90
51793;DHT22;37850;53.178;6.376;2022-12-07T07:12:27;3.00;99.90
51793;DHT22;37850;53.178;6.376;2022-12-07T07:14:52;2.90;99.90
51793;DHT22;37850;53.178;6.376;2022-12-07T07:17:18;3.00;99.90
51793;DHT22;37850;53.178;6.376;2022-12-07T07:19:44;2.90;99.90
51793;DHT22;37850;53.178;6.376;2022-12-07T07:22:09;3.00;99.90
51793;DHT22;37850;53.178;6.376;2022-12-07T07:24:35;2.90;99.90
51793;DHT22;37850;53.178;6.376;2022-12-07T07:27:01;3.00;99.90
51793;DHT22;37850;53.178;6.376;2022-12-07T07:29:27;2.90;99.90
51793;DHT22;37850;53.178;6.376;2022-12-07T07:31:52;2.90;99.90
51793;DHT22;37850;53.178;6.376;2022-12-07T07:34:20;2.90;99.90
51793;DHT22;37850;53.178;6.376;2022-12-07T07:36:46;2.90;99.90
51793;DHT22;37850;53.178;6.376;2022-12-07T07:39:12;2.90;99.90
51793;DHT22;37850;53.178;6.376;2022-12-07T07:41:38;2.90;99.90
51793;DHT22;37850;53.178;6.376;2022-12-07T07:44:04;2.90;99.90
51793;DHT22;37850;53.178;6.376;2022-12-07T07:46:29;2.90;99.90
51793;DHT22;37850;53.178;6.376;2022-12-07T07:48:55;2.90;99.90
51793;DHT22;37850;53.178;6.376;2022-12-07T07:51:21;2.90;99.90
51793;DHT22;37850;53.178;6.376;2022-12-07T07:53:47;2.90;99.90
51793;DHT22;37850;53.178;6.376;2022-12-07T07:56:13;2.80;99.90
51793;DHT22;37850;53.178;6.376;2022-12-07T07:58:38;2.80;99.90
51793;DHT22;37850;53.178;6.376;2022-12-07T08:01:06;2.80;99.90
51793;DHT22;37850;53.178;6.376;2022-12-07T08:03:32;2.70;99.90
51793;DHT22;37850;53.178;6.376;2022-12-07T08:05:57;2.70;99.90
51793;DHT22;37850;53.178;6.376;2022-12-07T08:08:23;2.70;99.90
51793;DHT22;37850;53.178;6.376;2022-12-07T08:10:49;3.50;99.90
51793;DHT22;37850;53.178;6.376;2022-12-07T08:13:16;2.70;99.90
51793;DHT22;37850;53.178;6.376;2022-12-07T08:15:44;2.70;99.90
51793;DHT22;37850;53.178;6.376;2022-12-07T08:18:11;2.70;99.90
51793;DHT22;37850;53.178;6.376;2022-12-07T08:20:38;2.70;99.90
51793;DHT22;37850;53.178;6.376;2022-12-07T08:23:04;2.70;99.90
51793;DHT22;37850;53.178;6.376;2022-12-07T08:25:31;2.70;99.90
51793;DHT22;37850;53.178;6.376;2022-12-07T08:28:02;2.70;99.90
51793;DHT22;37850;53.178;6.376;2022-12-07T08:30:29;2.70;99.90
51793;DHT22;37850;53.178;6.376;2022-12-07T08:32:55;2.90;99.90
51793;DHT22;37850;53.178;6.376;2022-12-07T08:35:21;2.70;99.90
51793;DHT22;37850;53.178;6.376;2022-12-07T08:37:47;2.70;99.90
51793;DHT22;37850;53.178;6.376;2022-12-07T08:40:14;2.70;99.90
51793;DHT22;37850;53.178;6.376;2022-12-07T08:42:48;2.80;99.90
51793;DHT22;37850;53.178;6.376;2022-12-07T08:45:15;2.70;99.90
51793;DHT22;37850;53.178;6.376;2022-12-07T08:47:46;2.80;99.90
51793;DHT22;37850;53.178;6.376;2022-12-07T08:50:13;2.80;99.90
51793;DHT22;37850;53.178;6.376;2022-12-07T08:52:39;2.80;99.90
51793;DHT22;37850;53.178;6.376;2022-12-07T08:55:06;2.90;99.90
51793;DHT22;37850;53.178;6.376;2022-12-07T08:57:34;2.90;99.90
51793;DHT22;37850;53.178;6.376;2022-12-07T09:00:01;3.00;99.90
51793;DHT22;37850;53.178;6.376;2022-12-07T09:02:26;3.00;99.90
51793;DHT22;37850;53.178;6.376;2022-12-07T09:04:52;3.10;99.90
51793;DHT22;37850;53.178;6.376;2022-12-07T09:07:18;3.10;99.90
51793;DHT22;37850;53.178;6.376;2022-12-07T09:09:44;3.10;99.90
51793;DHT22;37850;53.178;6.376;2022-12-07T09:12:09;3.20;99.90
51793;DHT22;37850;53.178;6.376;2022-12-07T09:14:36;3.30;99.90
51793;DHT22;37850;53.178;6.376;2022-12-07T09:17:09;3.30;99.90
51793;DHT22;37850;53.178;6.376;2022-12-07T09:19:35;3.30;99.90
51793;DHT22;37850;53.178;6.376;2022-12-07T09:22:01;3.40;99.90
51793;DHT22;37850;53.178;6.376;2022-12-07T09:24:27;3.60;99.90
51793;DHT22;37850;53.178;6.376;2022-12-07T09:26:53;3.40;99.90
51793;DHT22;37850;53.178;6.376;2022-12-07T09:29:18;3.50;99.90
51793;DHT22;37850;53.178;6.376;2022-12-07T09:31:44;3.50;99.90
51793;DHT22;37850;53.178;6.376;2022-12-07T09:34:10;3.50;99.90
51793;DHT22;37850;53.178;6.376;2022-12-07T09:36:36;3.50;99.90
51793;DHT22;37850;53.178;6.376;2022-12-07T09:39:03;3.50;99.90
51793;DHT22;37850;53.178;6.376;2022-12-07T09:41:31;3.50;99.90
51793;DHT22;37850;53.178;6.376;2022-12-07T09:44:05;3.50;99.90
51793;DHT22;37850;53.178;6.376;2022-12-07T09:46:36;3.60;99.90
51793;DHT22;37850;53.178;6.376;2022-12-07T09:49:04;4.30;99.90
51793;DHT22;37850;53.178;6.376;2022-12-07T09:51:31;4.00;99.90
51793;DHT22;37850;53.178;6.376;2022-12-07T09:54:01;3.60;99.90
51793;DHT22;37850;53.178;6.376;2022-12-07T09:56:29;3.60;99.90
51793;DHT22;37850;53.178;6.376;2022-12-07T09:59:03;3.60;99.90
51793;DHT22;37850;53.178;6.376;2022-12-07T10:01:33;3.60;99.90
51793;DHT22;37850;53.178;6.376;2022-12-07T10:04:20;3.60;99.90
51793;DHT22;37850;53.178;6.376;2022-12-07T10:06:47;3.60;99.90
51793;DHT22;37850;53.178;6.376;2022-12-07T10:09:15;3.70;99.90
51793;DHT22;37850;53.178;6.376;2022-12-07T10:12:09;3.80;99.90
51793;DHT22;37850;53.178;6.376;2022-12-07T10:14:39;3.80;99.90
51793;DHT22;37850;53.178;6.376;2022-12-07T10:17:39;3.80;99.90
51793;DHT22;37850;53.178;6.376;2022-12-07T10:20:18;3.90;99.90
51793;DHT22;37850;53.178;6.376;2022-12-07T10:23:15;4.00;99.90
51793;DHT22;37850;53.178;6.376;2022-12-07T10:25:42;4.10;99.90
51793;DHT22;37850;53.178;6.376;2022-12-07T10:30:50;4.10;99.90
51793;DHT22;37850;53.178;6.376;2022-12-07T10:33:36;4.30;99.90
51793;DHT22;37850;53.178;6.376;2022-12-07T10:39:09;4.30;99.90
51793;DHT22;37850;53.178;6.376;2022-12-07T10:41:38;4.40;99.90
51793;DHT22;37850;53.178;6.376;2022-12-07T10:44:22;4.40;99.90
51793;DHT22;37850;53.178;6.376;2022-12-07T10:52:20;4.60;99.90
51793;DHT22;37850;53.178;6.376;2022-12-07T10:54:52;4.30;99.90
51793;DHT22;37850;53.178;6.376;2022-12-07T11:06:34;4.70;99.90
51793;DHT22;37850;53.178;6.376;2022-12-07T11:14:56;4.70;99.90
51793;DHT22;37850;53.178;6.376;2022-12-07T11:17:35;4.80;99.90
51793;DHT22;37850;53.178;6.376;2022-12-07T11:20:34;4.70;99.90
51793;DHT22;37850;53.178;6.376;2022-12-07T11:26:05;4.70;99.90
51793;DHT22;37850;53.178;6.376;2022-12-07T11:31:22;4.70;99.90
51793;DHT22;37850;53.178;6.376;2022-12-07T11:33:55;4.80;99.90
51793;DHT22;37850;53.178;6.376;2022-12-07T11:38:57;4.80;99.90
51793;DHT22;37850;53.178;6.376;2022-12-07T11:41:38;4.80;99.90
51793;DHT22;37850;53.178;6.376;2022-12-07T11:44:08;4.90;99.90
51793;DHT22;37850;53.178;6.376;2022-12-07T11:47:20;4.90;99.90
51793;DHT22;37850;53.178;6.376;2022-12-07T11:52:58;5.00;99.90
51793;DHT22;37850;53.178;6.376;2022-12-07T11:56:03;5.10;99.90
51793;DHT22;37850;53.178;6.376;2022-12-07T12:06:43;5.50;99.90
51793;DHT22;37850;53.178;6.376;2022-12-07T12:09:33;5.40;99.90
51793;DHT22;37850;53.178;6.376;2022-12-07T12:25:53;5.50;99.90
51793;DHT22;37850;53.178;6.376;2022-12-07T12:28:40;5.40;99.90
51793;DHT22;37850;53.178;6.376;2022-12-07T12:31:13;5.40;99.90
51793;DHT22;37850;53.178;6.376;2022-12-07T12:33:52;5.40;99.90
51793;DHT22;37850;53.178;6.376;2022-12-07T12:36:23;5.30;99.90
51793;DHT22;37850;53.178;6.376;2022-12-07T12:50:11;4.90;99.90
51793;DHT22;37850;53.178;6.376;2022-12-07T12:57:35;4.80;99.90
51793;DHT22;37850;53.178;6.376;2022-12-07T13:00:19;4.80;99.90
51793;DHT22;37850;53.178;6.376;2022-12-07T13:02:51;4.70;99.90
51793;DHT22;37850;53.178;6.376;2022-12-07T13:05:23;4.60;99.90
51793;DHT22;37850;53.178;6.376;2022-12-07T13:07:54;4.60;99.90
51793;DHT22;37850;53.178;6.376;2022-12-07T13:23:37;4.50;99.90
51793;DHT22;37850;53.178;6.376;2022-12-07T13:26:25;4.60;99.90
51793;DHT22;37850;53.178;6.376;2022-12-07T13:31:39;4.50;99.90
51793;DHT22;37850;53.178;6.376;2022-12-07T13:34:35;4.50;99.90
51793;DHT22;37850;53.178;6.376;2022-12-07T13:39:45;4.50;99.90
51793;DHT22;37850;53.178;6.376;2022-12-07T13:42:28;4.50;99.90
51793;DHT22;37850;53.178;6.376;2022-12-07T13:45:00;4.50;99.90
51793;DHT22;37850;53.178;6.376;2022-12-07T13:47:48;4.50;99.90
51793;DHT22;37850;53.178;6.376;2022-12-07T13:50:31;4.50;99.90
51793;DHT22;37850;53.178;6.376;2022-12-07T13:52:59;4.40;99.90
51793;DHT22;37850;53.178;6.376;2022-12-07T13:55:26;4.40;99.90
51793;DHT22;37850;53.178;6.376;2022-12-07T13:57:54;4.40;99.90
51793;DHT22;37850;53.178;6.376;2022-12-07T14:00:25;4.40;99.90
51793;DHT22;37850;53.178;6.376;2022-12-07T14:05:26;4.40;99.90
51793;DHT22;37850;53.178;6.376;2022-12-07T14:08:02;4.30;99.90
51793;DHT22;37850;53.178;6.376;2022-12-07T14:12:59;4.30;99.90
51793;DHT22;37850;53.178;6.376;2022-12-07T14:15:31;4.80;99.90
51793;DHT22;37850;53.178;6.376;2022-12-07T14:17:59;4.30;99.90
51793;DHT22;37850;53.178;6.376;2022-12-07T14:20:37;4.30;99.90
51793;DHT22;37850;53.178;6.376;2022-12-07T14:23:04;4.30;99.90
51793;DHT22;37850;53.178;6.376;2022-12-07T14:25:50;4.30;99.90
51793;DHT22;37850;53.178;6.376;2022-12-07T14:28:34;4.40;99.90
51793;DHT22;37850;53.178;6.376;2022-12-07T14:31:02;4.30;99.90
51793;DHT22;37850;53.178;6.376;2022-12-07T14:33:31;4.30;99.90
51793;DHT22;37850;53.178;6.376;2022-12-07T14:35:57;4.30;99.90
51793;DHT22;37850;53.178;6.376;2022-12-07T14:38:25;4.20;99.90
51793;DHT22;37850;53.178;6.376;2022-12-07T14:40:53;4.20;99.90
51793;DHT22;37850;53.178;6.376;2022-12-07T14:43:20;4.20;99.90
51793;DHT22;37850;53.178;6.376;2022-12-07T14:45:46;4.10;99.90
51793;DHT22;37850;53.178;6.376;2022-12-07T14:48:13;4.10;99.90
51793;DHT22;37850;53.178;6.376;2022-12-07T14:50:43;4.00;99.90
51793;DHT22;37850;53.178;6.376;2022-12-07T14:53:13;4.00;99.90
51793;DHT22;37850;53.178;6.376;2022-12-07T14:55:39;3.90;99.90
51793;DHT22;37850;53.178;6.376;2022-12-07T14:58:05;4.20;99.90
51793;DHT22;37850;53.178;6.376;2022-12-07T15:00:31;4.00;99.90
51793;DHT22;37850;53.178;6.376;2022-12-07T15:02:57;4.10;99.90
51793;DHT22;37850;53.178;6.376;2022-12-07T15:05:23;4.00;99.90
51793;DHT22;37850;53.178;6.376;2022-12-07T15:07:49;3.90;99.90
51793;DHT22;37850;53.178;6.376;2022-12-07T15:10:27;3.90;99.90
51793;DHT22;37850;53.178;6.376;2022-12-07T15:12:56;3.90;99.90
51793;DHT22;37850;53.178;6.376;2022-12-07T15:15:42;3.90;99.90
51793;DHT22;37850;53.178;6.376;2022-12-07T15:18:07;3.90;99.90
51793;DHT22;37850;53.178;6.376;2022-12-07T15:20:33;3.90;99.90
51793;DHT22;37850;53.178;6.376;2022-12-07T15:23:02;3.80;99.90
51793;DHT22;37850;53.178;6.376;2022-12-07T15:25:27;3.80;99.90
51793;DHT22;37850;53.178;6.376;2022-12-07T15:27:53;3.80;99.90
51793;DHT22;37850;53.178;6.376;2022-12-07T15:30:19;3.80;99.90
51793;DHT22;37850;53.178;6.376;2022-12-07T15:32:49;4.30;99.90
51793;DHT22;37850;53.178;6.376;2022-12-07T15:35:15;3.70;99.90
51793;DHT22;37850;53.178;6.376;2022-12-07T15:37:41;3.70;99.90
51793;DHT22;37850;53.178;6.376;2022-12-07T15:40:07;3.70;99.90
51793;DHT22;37850;53.178;6.376;2022-12-07T15:42:34;3.70;99.90
51793;DHT22;37850;53.178;6.376;2022-12-07T15:48:41;3.70;99.90
51793;DHT22;37850;53.178;6.376;2022-12-07T15:51:08;3.70;99.90
51793;DHT22;37850;53.178;6.376;2022-12-07T15:53:35;3.70;99.90
51793;DHT22;37850;53.178;6.376;2022-12-07T15:56:01;3.70;99.90
51793;DHT22;37850;53.178;6.376;2022-12-07T15:58:31;3.60;99.90
51793;DHT22;37850;53.178;6.376;2022-12-07T16:00:56;3.90;99.90
51793;DHT22;37850;53.178;6.376;2022-12-07T16:03:22;3.50;99.90
51793;DHT22;37850;53.178;6.376;2022-12-07T16:05:49;3.60;99.90
51793;DHT22;37850;53.178;6.376;2022-12-07T16:08:15;3.60;99.90
51793;DHT22;37850;53.178;6.376;2022-12-07T16:10:41;3.60;99.90
51793;DHT22;37850;53.178;6.376;2022-12-07T16:13:11;3.80;99.90
51793;DHT22;37850;53.178;6.376;2022-12-07T16:15:40;3.60;99.90
51793;DHT22;37850;53.178;6.376;2022-12-07T16:18:06;3.60;99.90
51793;DHT22;37850;53.178;6.376;2022-12-07T16:20:32;3.60;99.90
51793;DHT22;37850;53.178;6.376;2022-12-07T16:22:58;3.60;99.90
51793;DHT22;37850;53.178;6.376;2022-12-07T16:25:24;3.60;99.90
51793;DHT22;37850;53.178;6.376;2022-12-07T16:27:53;3.60;99.90
51793;DHT22;37850;53.178;6.376;2022-12-07T16:30:19;3.60;99.90
51793;DHT22;37850;53.178;6.376;2022-12-07T16:32:54;3.60;99.90
51793;DHT22;37850;53.178;6.376;2022-12-07T16:35:21;3.50;99.90
51793;DHT22;37850;53.178;6.376;2022-12-07T16:37:47;3.50;99.90
51793;DHT22;37850;53.178;6.376;2022-12-07T16:40:15;3.50;99.90
51793;DHT22;37850;53.178;6.376;2022-12-07T16:42:43;4.60;99.90
51793;DHT22;37850;53.178;6.376;2022-12-07T16:45:09;3.50;99.90
51793;DHT22;37850;53.178;6.376;2022-12-07T16:47:40;3.50;99.90
51793;DHT22;37850;53.178;6.376;2022-12-07T16:50:06;3.50;99.90
51793;DHT22;37850;53.178;6.376;2022-12-07T16:52:33;3.50;99.90
51793;DHT22;37850;53.178;6.376;2022-12-07T16:54:59;3.50;99.90
51793;DHT22;37850;53.178;6.376;2022-12-07T16:57:25;3.50;99.90
51793;DHT22;37850;53.178;6.376;2022-12-07T16:59:52;3.50;99.90
51793;DHT22;37850;53.178;6.376;2022-12-07T17:02:18;3.50;99.90
51793;DHT22;37850;53.178;6.376;2022-12-07T17:04:44;3.50;99.90
51793;DHT22;37850;53.178;6.376;2022-12-07T17:07:10;3.50;99.90
51793;DHT22;37850;53.178;6.376;2022-12-07T17:09:36;3.50;99.90
51793;DHT22;37850;53.178;6.376;2022-12-07T17:12:03;3.50;99.90
51793;DHT22;37850;53.178;6.376;2022-12-07T17:14:29;3.50;99.90
51793;DHT22;37850;53.178;6.376;2022-12-07T17:17:13;3.50;99.90
51793;DHT22;37850;53.178;6.376;2022-12-07T17:19:39;3.50;99.90
51793;DHT22;37850;53.178;6.376;2022-12-07T17:22:06;3.60;99.90
51793;DHT22;37850;53.178;6.376;2022-12-07T17:24:32;3.40;99.90
51793;DHT22;37850;53.178;6.376;2022-12-07T17:26:58;4.50;99.90
51793;DHT22;37850;53.178;6.376;2022-12-07T17:29:23;4.20;99.90
51793;DHT22;37850;53.178;6.376;2022-12-07T17:31:49;3.40;99.90
51793;DHT22;37850;53.178;6.376;2022-12-07T17:34:16;3.40;99.90
51793;DHT22;37850;53.178;6.376;2022-12-07T17:36:42;3.40;99.90
51793;DHT22;37850;53.178;6.376;2022-12-07T17:39:13;3.40;99.90
51793;DHT22;37850;53.178;6.376;2022-12-07T17:41:39;3.30;99.90
51793;DHT22;37850;53.178;6.376;2022-12-07T17:44:24;3.30;99.90
51793;DHT22;37850;53.178;6.376;2022-12-07T17:46:53;3.30;99.90
51793;DHT22;37850;53.178;6.376;2022-12-07T17:49:27;3.30;99.90
51793;DHT22;37850;53.178;6.376;2022-12-07T17:51:53;3.70;99.90
51793;DHT22;37850;53.178;6.376;2022-12-07T17:54:37;3.30;99.90
51793;DHT22;37850;53.178;6.376;2022-12-07T17:57:03;3.30;99.90
51793;DHT22;37850;53.178;6.376;2022-12-07T17:59:29;3.40;99.90
51793;DHT22;37850;53.178;6.376;2022-12-07T18:01:55;3.30;99.90
51793;DHT22;37850;53.178;6.376;2022-12-07T18:04:21;3.30;99.90
51793;DHT22;37850;53.178;6.376;2022-12-07T18:06:47;3.30;99.90
51793;DHT22;37850;53.178;6.376;2022-12-07T18:09:12;3.30;99.90
51793;DHT22;37850;53.178;6.376;2022-12-07T18:11:38;3.30;99.90
51793;DHT22;37850;53.178;6.376;2022-12-07T18:14:05;3.70;99.90